sensor_id;sensor_type;location;lat;lon;timestamp;P1;P2;P0
47709;PMS7003;33473;51.640;5.892;2023-04-26T00:09:42;10.09;11.67;5.9
47709;PMS7003;33473;51.640;5.892;2023-04-26T00:23:01;10.81;12.65;6.44
47709;PMS7003;33473;51.640;5.892;2023-04-26T00:36:21;10.09;11.89;6.22
47709;PMS7003;33473;51.640;5.892;2023-04-26T00:49:41;11.65;13.42;6.33
47709;PMS7003;33473;51.640;5.892;2023-04-26T01:03:00;11.53;12.98;6.33
47709;PMS7003;33473;51.640;5.892;2023-04-26T01:16:20;10.81;11.89;6.0
47709;PMS7003;33473;51.640;5.892;2023-04-26T01:29:40;11.29;12.11;6.11
47709;PMS7003;33473;51.640;5.892;2023-04-26T01:42:59;10.33;12.54;6.11
47709;PMS7003;33473;51.640;5.892;2023-04-26T01:56:19;11.53;12.76;6.33
47709;PMS7003;33473;51.640;5.892;2023-04-26T02:09:39;9.49;11.67;6.22
47709;PMS7003;33473;51.640;5.892;2023-04-26T02:22:58;11.53;13.31;6.88
47709;PMS7003;33473;51.640;5.892;2023-04-26T02:36:18;11.77;12.98;6.0
47709;PMS7003;33473;51.640;5.892;2023-04-26T02:49:38;13.93;13.85;6.22
47709;PMS7003;33473;51.640;5.892;2023-04-26T03:02:57;13.69;14.4;6.99
47709;PMS7003;33473;51.640;5.892;2023-04-26T03:16:17;12.97;14.94;6.66
47709;PMS7003;33473;51.640;5.892;2023-04-26T03:29:37;11.77;13.85;6.66
47709;PMS7003;33473;51.640;5.892;2023-04-26T03:42:56;12.97;14.72;6.99
47709;PMS7003;33473;51.640;5.892;2023-04-26T03:56:16;12.97;14.4;6.55
47709;PMS7003;33473;51.640;5.892;2023-04-26T04:09:36;14.17;14.94;7.2
47709;PMS7003;33473;51.640;5.892;2023-04-26T04:22:55;12.13;13.85;6.22
47709;PMS7003;33473;51.640;5.892;2023-04-26T04:36:15;12.85;13.53;6.44
47709;PMS7003;33473;51.640;5.892;2023-04-26T04:49:35;16.21;14.72;6.66
47709;PMS7003;33473;51.640;5.892;2023-04-26T05:02:54;13.57;14.62;6.88
47709;PMS7003;33473;51.640;5.892;2023-04-26T05:16:14;15.25;15.49;7.31
47709;PMS7003;33473;51.640;5.892;2023-04-26T05:29:34;15.01;16.47;7.97
47709;PMS7003;33473;51.640;5.892;2023-04-26T05:42:54;16.81;17.23;8.51
47709;PMS7003;33473;51.640;5.892;2023-04-26T05:56:13;18.13;19.08;9.71
47709;PMS7003;33473;51.640;5.892;2023-04-26T06:09:33;19.33;18.76;9.6
47709;PMS7003;33473;51.640;5.892;2023-04-26T06:22:53;14.29;16.03;8.95
47709;PMS7003;33473;51.640;5.892;2023-04-26T06:36:12;16.69;17.56;9.82
47709;PMS7003;33473;51.640;5.892;2023-04-26T06:49:32;13.57;14.4;7.86
47709;PMS7003;33473;51.640;5.892;2023-04-26T07:02:52;10.81;11.35;7.2
47709;PMS7003;33473;51.640;5.892;2023-04-26T07:16:11;7.45;9.82;6.22
47709;PMS7003;33473;51.640;5.892;2023-04-26T07:29:31;5.17;6.88;4.59
47709;PMS7003;33473;51.640;5.892;2023-04-26T07:42:51;4.21;5.79;3.93
47709;PMS7003;33473;51.640;5.892;2023-04-26T07:56:10;3.12;5.68;3.82
47709;PMS7003;33473;51.640;5.892;2023-04-26T08:09:30;1.68;4.37;3.06
47709;PMS7003;33473;51.640;5.892;2023-04-26T08:22:50;1.8;4.7;3.17
47709;PMS7003;33473;51.640;5.892;2023-04-26T08:36:09;3.85;5.46;3.5
47709;PMS7003;33473;51.640;5.892;2023-04-26T08:49:29;1.92;4.15;3.06
47709;PMS7003;33473;51.640;5.892;2023-04-26T09:02:49;0.96;3.93;2.84
47709;PMS7003;33473;51.640;5.892;2023-04-26T09:16:08;1.08;4.26;3.06
47709;PMS7003;33473;51.640;5.892;2023-04-26T09:29:28;0.72;3.71;2.73
47709;PMS7003;33473;51.640;5.892;2023-04-26T09:42:48;1.44;3.5;2.41
47709;PMS7003;33473;51.640;5.892;2023-04-26T09:56:07;1.8;4.8;3.39
47709;PMS7003;33473;51.640;5.892;2023-04-26T10:09:27;1.8;4.04;2.95
47709;PMS7003;33473;51.640;5.892;2023-04-26T10:22:47;0.48;3.5;2.62
47709;PMS7003;33473;51.640;5.892;2023-04-26T10:36:06;1.08;4.04;2.84
47709;PMS7003;33473;51.640;5.892;2023-04-26T10:49:26;2.04;4.48;3.28
47709;PMS7003;33473;51.640;5.892;2023-04-26T11:02:46;2.64;4.8;3.39
47709;PMS7003;33473;51.640;5.892;2023-04-26T11:16:06;1.44;4.37;3.06
47709;PMS7003;33473;51.640;5.892;2023-04-26T11:29:25;1.44;4.48;2.95
47709;PMS7003;33473;51.640;5.892;2023-04-26T11:42:45;1.68;4.59;3.06
47709;PMS7003;33473;51.640;5.892;2023-04-26T11:56:05;1.08;4.15;3.06
47709;PMS7003;33473;51.640;5.892;2023-04-26T12:09:24;1.56;3.71;2.84
47709;PMS7003;33473;51.640;5.892;2023-04-26T12:22:44;1.92;4.48;3.06
47709;PMS7003;33473;51.640;5.892;2023-04-26T12:36:04;1.32;4.26;3.06
47709;PMS7003;33473;51.640;5.892;2023-04-26T12:49:23;1.56;4.37;3.06
47709;PMS7003;33473;51.640;5.892;2023-04-26T13:02:43;1.68;4.7;3.28
47709;PMS7003;33473;51.640;5.892;2023-04-26T13:16:03;1.44;4.48;3.39
47709;PMS7003;33473;51.640;5.892;2023-04-26T13:29:22;1.8;4.59;3.28
47709;PMS7003;33473;51.640;5.892;2023-04-26T13:42:42;3.36;5.35;3.71
47709;PMS7003;33473;51.640;5.892;2023-04-26T13:56:02;2.16;4.8;3.71
47709;PMS7003;33473;51.640;5.892;2023-04-26T14:09:21;2.4;5.46;3.61
47709;PMS7003;33473;51.640;5.892;2023-04-26T14:22:41;3.73;5.57;3.93
47709;PMS7003;33473;51.640;5.892;2023-04-26T14:36:01;2.76;5.46;4.04
47709;PMS7003;33473;51.640;5.892;2023-04-26T14:49:20;2.76;5.68;4.04
47709;PMS7003;33473;51.640;5.892;2023-04-26T15:02:40;2.88;5.79;4.04
47709;PMS7003;33473;51.640;5.892;2023-04-26T15:16:00;3.12;5.79;4.15
47709;PMS7003;33473;51.640;5.892;2023-04-26T15:29:19;3.24;6.22;4.37
47709;PMS7003;33473;51.640;5.892;2023-04-26T15:42:39;3.97;6.33;4.04
47709;PMS7003;33473;51.640;5.892;2023-04-26T15:55:59;3.24;5.57;4.04
47709;PMS7003;33473;51.640;5.892;2023-04-26T16:09:18;3.85;6.22;4.48
47709;PMS7003;33473;51.640;5.892;2023-04-26T16:22:38;4.45;5.57;3.93
47709;PMS7003;33473;51.640;5.892;2023-04-26T16:35:58;3.97;6.44;4.37
47709;PMS7003;33473;51.640;5.892;2023-04-26T16:49:17;3.73;5.9;4.37
47709;PMS7003;33473;51.640;5.892;2023-04-26T17:02:37;3.97;6.55;4.48
47709;PMS7003;33473;51.640;5.892;2023-04-26T17:15:57;3.48;6.22;4.48
47709;PMS7003;33473;51.640;5.892;2023-04-26T17:29:16;3.73;6.55;4.7
47709;PMS7003;33473;51.640;5.892;2023-04-26T17:42:36;1.56;4.59;3.61
47709;PMS7003;33473;51.640;5.892;2023-04-26T17:55:56;2.64;5.46;3.82
47709;PMS7003;33473;51.640;5.892;2023-04-26T18:09:15;2.88;5.79;4.15
47709;PMS7003;33473;51.640;5.892;2023-04-26T18:22:35;5.65;6.66;4.48
47709;PMS7003;33473;51.640;5.892;2023-04-26T18:35:55;3.24;6.0;4.37
47709;PMS7003;33473;51.640;5.892;2023-04-26T18:49:14;3.97;6.66;4.91
47709;PMS7003;33473;51.640;5.892;2023-04-26T19:02:34;4.21;6.66;4.59
47709;PMS7003;33473;51.640;5.892;2023-04-26T19:15:54;4.69;6.88;4.59
47709;PMS7003;33473;51.640;5.892;2023-04-26T19:29:13;4.33;6.33;4.37
47709;PMS7003;33473;51.640;5.892;2023-04-26T19:42:33;4.45;6.55;4.37
47709;PMS7003;33473;51.640;5.892;2023-04-26T19:55:53;3.36;6.33;4.26
47709;PMS7003;33473;51.640;5.892;2023-04-26T20:09:13;4.21;6.11;4.26
47709;PMS7003;33473;51.640;5.892;2023-04-26T20:22:32;3.12;6.11;4.15
47709;PMS7003;33473;51.640;5.892;2023-04-26T20:35:52;4.21;7.09;4.48
47709;PMS7003;33473;51.640;5.892;2023-04-26T20:49:12;3.6;6.55;4.37
47709;PMS7003;33473;51.640;5.892;2023-04-26T21:02:31;4.69;7.53;4.8
47709;PMS7003;33473;51.640;5.892;2023-04-26T21:15:51;4.81;6.88;4.59
47709;PMS7003;33473;51.640;5.892;2023-04-26T21:29:11;5.29;7.42;4.37
47709;PMS7003;33473;51.640;5.892;2023-04-26T21:42:30;7.21;8.18;5.13
47709;PMS7003;33473;51.640;5.892;2023-04-26T21:55:50;7.21;8.62;5.24
47709;PMS7003;33473;51.640;5.892;2023-04-26T22:09:10;5.41;7.86;4.7
47709;PMS7003;33473;51.640;5.892;2023-04-26T22:22:29;6.61;8.18;5.02
47709;PMS7003;33473;51.640;5.892;2023-04-26T22:35:49;9.01;11.02;6.44
47709;PMS7003;33473;51.640;5.892;2023-04-26T22:49:09;10.45;10.69;6.44
47709;PMS7003;33473;51.640;5.892;2023-04-26T23:02:28;7.81;9.93;6.22
47709;PMS7003;33473;51.640;5.892;2023-04-26T23:15:48;10.57;10.91;6.11
47709;PMS7003;33473;51.640;5.892;2023-04-26T23:29:08;6.49;8.95;5.57
47709;PMS7003;33473;51.640;5.892;2023-04-26T23:42:27;9.37;10.26;5.68
47709;PMS7003;33473;51.640;5.892;2023-04-26T23:55:47;6.61;8.95;5.35
